sensor_id;sensor_type;location;lat;lon;timestamp;temperature;humidity
12264;DHT22;6194;49.010;8.414;2023-05-07T00:02:06;14.30;99.90
12264;DHT22;6194;49.010;8.414;2023-05-07T00:04:32;14.20;99.90
12264;DHT22;6194;49.010;8.414;2023-05-07T00:07:02;14.10;99.90
12264;DHT22;6194;49.010;8.414;2023-05-07T00:09:28;14.10;99.90
12264;DHT22;6194;49.010;8.414;2023-05-07T00:11:53;14.10;99.90
12264;DHT22;6194;49.010;8.414;2023-05-07T00:14:19;14.10;99.90
12264;DHT22;6194;49.010;8.414;2023-05-07T00:16:45;14.00;99.90
12264;DHT22;6194;49.010;8.414;2023-05-07T00:19:11;14.00;99.90
12264;DHT22;6194;49.010;8.414;2023-05-07T00:21:36;14.00;99.90
12264;DHT22;6194;49.010;8.414;2023-05-07T00:24:02;14.00;99.90
12264;DHT22;6194;49.010;8.414;2023-05-07T00:26:27;14.00;99.90
12264;DHT22;6194;49.010;8.414;2023-05-07T00:28:53;14.00;99.90
12264;DHT22;6194;49.010;8.414;2023-05-07T00:31:19;14.00;99.90
12264;DHT22;6194;49.010;8.414;2023-05-07T00:33:44;14.00;99.90
12264;DHT22;6194;49.010;8.414;2023-05-07T00:36:10;13.90;99.90
12264;DHT22;6194;49.010;8.414;2023-05-07T00:38:35;13.90;99.90
12264;DHT22;6194;49.010;8.414;2023-05-07T00:41:01;14.00;99.90
12264;DHT22;6194;49.010;8.414;2023-05-07T00:43:27;14.00;99.90
12264;DHT22;6194;49.010;8.414;2023-05-07T00:45:54;12.90;99.90
12264;DHT22;6194;49.010;8.414;2023-05-07T00:48:20;14.00;99.90
12264;DHT22;6194;49.010;8.414;2023-05-07T00:50:45;14.00;99.90
12264;DHT22;6194;49.010;8.414;2023-05-07T00:53:12;14.00;99.90
12264;DHT22;6194;49.010;8.414;2023-05-07T00:55:38;14.00;99.90
12264;DHT22;6194;49.010;8.414;2023-05-07T00:58:04;14.00;99.90
12264;DHT22;6194;49.010;8.414;2023-05-07T01:00:29;14.00;99.90
12264;DHT22;6194;49.010;8.414;2023-05-07T01:02:55;13.90;99.90
12264;DHT22;6194;49.010;8.414;2023-05-07T01:05:23;13.80;99.90
12264;DHT22;6194;49.010;8.414;2023-05-07T01:07:49;13.80;99.90
12264;DHT22;6194;49.010;8.414;2023-05-07T01:10:15;13.70;99.90
12264;DHT22;6194;49.010;8.414;2023-05-07T01:12:43;13.60;99.90
12264;DHT22;6194;49.010;8.414;2023-05-07T01:15:09;13.50;99.90
12264;DHT22;6194;49.010;8.414;2023-05-07T01:17:36;13.50;99.90
12264;DHT22;6194;49.010;8.414;2023-05-07T01:20:03;13.40;99.90
12264;DHT22;6194;49.010;8.414;2023-05-07T01:22:31;13.40;99.90
12264;DHT22;6194;49.010;8.414;2023-05-07T01:24:58;13.30;99.90
12264;DHT22;6194;49.010;8.414;2023-05-07T01:27:25;13.30;99.90
12264;DHT22;6194;49.010;8.414;2023-05-07T01:29:51;13.30;99.90
12264;DHT22;6194;49.010;8.414;2023-05-07T01:32:20;13.30;99.90
12264;DHT22;6194;49.010;8.414;2023-05-07T01:34:48;13.20;99.90
12264;DHT22;6194;49.010;8.414;2023-05-07T01:37:15;13.20;99.90
12264;DHT22;6194;49.010;8.414;2023-05-07T01:39:42;13.20;99.90
12264;DHT22;6194;49.010;8.414;2023-05-07T01:42:08;13.20;99.90
12264;DHT22;6194;49.010;8.414;2023-05-07T01:44:33;13.20;99.90
12264;DHT22;6194;49.010;8.414;2023-05-07T01:46:59;13.20;99.90
12264;DHT22;6194;49.010;8.414;2023-05-07T01:49:26;13.20;99.90
12264;DHT22;6194;49.010;8.414;2023-05-07T01:51:52;13.10;99.90
12264;DHT22;6194;49.010;8.414;2023-05-07T01:54:18;13.20;99.90
12264;DHT22;6194;49.010;8.414;2023-05-07T01:56:44;13.10;99.90
12264;DHT22;6194;49.010;8.414;2023-05-07T01:59:09;13.20;99.90
12264;DHT22;6194;49.010;8.414;2023-05-07T02:01:35;13.10;99.90
12264;DHT22;6194;49.010;8.414;2023-05-07T02:04:01;13.20;99.90
12264;DHT22;6194;49.010;8.414;2023-05-07T02:06:27;13.00;99.90
12264;DHT22;6194;49.010;8.414;2023-05-07T02:08:52;13.30;99.90
12264;DHT22;6194;49.010;8.414;2023-05-07T02:11:18;13.00;99.90
12264;DHT22;6194;49.010;8.414;2023-05-07T02:13:43;13.10;99.90
12264;DHT22;6194;49.010;8.414;2023-05-07T02:16:09;12.90;99.90
12264;DHT22;6194;49.010;8.414;2023-05-07T02:18:36;12.90;99.90
12264;DHT22;6194;49.010;8.414;2023-05-07T02:21:01;12.90;99.90
12264;DHT22;6194;49.010;8.414;2023-05-07T02:23:27;12.90;99.90
12264;DHT22;6194;49.010;8.414;2023-05-07T02:25:52;12.80;99.90
12264;DHT22;6194;49.010;8.414;2023-05-07T02:28:18;12.90;99.90
12264;DHT22;6194;49.010;8.414;2023-05-07T02:30:43;12.80;99.90
12264;DHT22;6194;49.010;8.414;2023-05-07T02:33:09;12.80;99.90
12264;DHT22;6194;49.010;8.414;2023-05-07T02:35:37;12.70;99.90
12264;DHT22;6194;49.010;8.414;2023-05-07T02:38:03;12.80;99.90
12264;DHT22;6194;49.010;8.414;2023-05-07T02:40:28;12.70;99.90
12264;DHT22;6194;49.010;8.414;2023-05-07T02:42:54;12.70;99.90
12264;DHT22;6194;49.010;8.414;2023-05-07T02:45:20;12.90;99.90
12264;DHT22;6194;49.010;8.414;2023-05-07T02:47:45;12.80;99.90
12264;DHT22;6194;49.010;8.414;2023-05-07T02:50:12;12.70;99.90
12264;DHT22;6194;49.010;8.414;2023-05-07T02:52:37;12.70;99.90
12264;DHT22;6194;49.010;8.414;2023-05-07T02:55:03;12.60;99.90
12264;DHT22;6194;49.010;8.414;2023-05-07T02:57:29;12.70;99.90
12264;DHT22;6194;49.010;8.414;2023-05-07T02:59:54;12.60;99.90
12264;DHT22;6194;49.010;8.414;2023-05-07T03:02:20;12.60;99.90
12264;DHT22;6194;49.010;8.414;2023-05-07T03:04:45;12.80;99.90
12264;DHT22;6194;49.010;8.414;2023-05-07T03:07:11;12.60;99.90
12264;DHT22;6194;49.010;8.414;2023-05-07T03:09:36;12.50;99.90
12264;DHT22;6194;49.010;8.414;2023-05-07T03:12:02;12.50;99.90
12264;DHT22;6194;49.010;8.414;2023-05-07T03:14:28;12.50;99.90
12264;DHT22;6194;49.010;8.414;2023-05-07T03:16:53;12.50;99.90
12264;DHT22;6194;49.010;8.414;2023-05-07T03:19:19;12.60;99.90
12264;DHT22;6194;49.010;8.414;2023-05-07T03:21:45;12.50;99.90
12264;DHT22;6194;49.010;8.414;2023-05-07T03:24:10;12.50;99.90
12264;DHT22;6194;49.010;8.414;2023-05-07T03:26:36;12.50;99.90
12264;DHT22;6194;49.010;8.414;2023-05-07T03:29:01;12.40;99.90
12264;DHT22;6194;49.010;8.414;2023-05-07T03:31:27;12.40;99.90
12264;DHT22;6194;49.010;8.414;2023-05-07T03:33:54;12.40;99.90
12264;DHT22;6194;49.010;8.414;2023-05-07T03:36:20;12.40;99.90
12264;DHT22;6194;49.010;8.414;2023-05-07T03:38:47;12.30;99.90
12264;DHT22;6194;49.010;8.414;2023-05-07T03:41:13;12.30;99.90
12264;DHT22;6194;49.010;8.414;2023-05-07T03:43:38;12.40;99.90
12264;DHT22;6194;49.010;8.414;2023-05-07T03:46:04;12.40;99.90
12264;DHT22;6194;49.010;8.414;2023-05-07T03:48:30;12.30;99.90
12264;DHT22;6194;49.010;8.414;2023-05-07T03:50:57;12.40;99.90
12264;DHT22;6194;49.010;8.414;2023-05-07T03:53:22;12.30;99.90
12264;DHT22;6194;49.010;8.414;2023-05-07T03:55:48;12.30;99.90
12264;DHT22;6194;49.010;8.414;2023-05-07T03:58:14;12.30;99.90
12264;DHT22;6194;49.010;8.414;2023-05-07T04:00:39;12.30;99.90
12264;DHT22;6194;49.010;8.414;2023-05-07T04:03:06;12.20;99.90
12264;DHT22;6194;49.010;8.414;2023-05-07T04:05:31;12.30;99.90
12264;DHT22;6194;49.010;8.414;2023-05-07T04:07:58;12.40;99.90
12264;DHT22;6194;49.010;8.414;2023-05-07T04:10:24;12.50;99.90
12264;DHT22;6194;49.010;8.414;2023-05-07T04:12:49;12.50;99.90
12264;DHT22;6194;49.010;8.414;2023-05-07T04:15:15;12.50;99.90
12264;DHT22;6194;49.010;8.414;2023-05-07T04:17:41;12.50;99.90
12264;DHT22;6194;49.010;8.414;2023-05-07T04:20:09;12.40;99.90
12264;DHT22;6194;49.010;8.414;2023-05-07T04:22:36;12.40;99.90
12264;DHT22;6194;49.010;8.414;2023-05-07T04:25:02;12.40;99.90
12264;DHT22;6194;49.010;8.414;2023-05-07T04:27:28;12.40;99.90
12264;DHT22;6194;49.010;8.414;2023-05-07T04:29:54;12.40;99.90
12264;DHT22;6194;49.010;8.414;2023-05-07T04:32:22;12.40;99.90
12264;DHT22;6194;49.010;8.414;2023-05-07T04:34:47;12.50;99.90
12264;DHT22;6194;49.010;8.414;2023-05-07T04:37:13;12.50;99.90
12264;DHT22;6194;49.010;8.414;2023-05-07T04:39:38;12.50;99.90
12264;DHT22;6194;49.010;8.414;2023-05-07T04:42:04;12.60;99.90
12264;DHT22;6194;49.010;8.414;2023-05-07T04:44:32;12.70;99.90
12264;DHT22;6194;49.010;8.414;2023-05-07T04:46:59;12.80;99.90
12264;DHT22;6194;49.010;8.414;2023-05-07T04:49:25;12.90;99.90
12264;DHT22;6194;49.010;8.414;2023-05-07T04:51:51;12.90;99.90
12264;DHT22;6194;49.010;8.414;2023-05-07T04:54:16;12.90;99.90
12264;DHT22;6194;49.010;8.414;2023-05-07T04:56:42;12.90;99.90
12264;DHT22;6194;49.010;8.414;2023-05-07T04:59:07;13.00;99.90
12264;DHT22;6194;49.010;8.414;2023-05-07T05:01:33;13.10;99.90
12264;DHT22;6194;49.010;8.414;2023-05-07T05:03:59;13.20;99.90
12264;DHT22;6194;49.010;8.414;2023-05-07T05:06:25;13.20;99.90
12264;DHT22;6194;49.010;8.414;2023-05-07T05:08:51;13.40;99.90
12264;DHT22;6194;49.010;8.414;2023-05-07T05:11:17;13.50;99.90
12264;DHT22;6194;49.010;8.414;2023-05-07T05:13:42;13.60;99.90
12264;DHT22;6194;49.010;8.414;2023-05-07T05:16:08;13.70;99.90
12264;DHT22;6194;49.010;8.414;2023-05-07T05:18:34;13.90;99.90
12264;DHT22;6194;49.010;8.414;2023-05-07T05:21:00;13.90;99.90
12264;DHT22;6194;49.010;8.414;2023-05-07T05:23:25;14.00;99.90
12264;DHT22;6194;49.010;8.414;2023-05-07T05:25:55;14.20;99.90
12264;DHT22;6194;49.010;8.414;2023-05-07T05:28:21;14.30;99.90
12264;DHT22;6194;49.010;8.414;2023-05-07T05:30:47;14.50;99.90
12264;DHT22;6194;49.010;8.414;2023-05-07T05:33:12;14.70;99.90
12264;DHT22;6194;49.010;8.414;2023-05-07T05:35:38;15.00;99.90
12264;DHT22;6194;49.010;8.414;2023-05-07T05:38:03;15.10;99.90
12264;DHT22;6194;49.010;8.414;2023-05-07T05:40:29;15.20;99.90
12264;DHT22;6194;49.010;8.414;2023-05-07T05:42:55;15.70;99.90
12264;DHT22;6194;49.010;8.414;2023-05-07T05:45:20;15.70;99.90
12264;DHT22;6194;49.010;8.414;2023-05-07T05:47:46;15.90;99.90
12264;DHT22;6194;49.010;8.414;2023-05-07T05:50:11;16.10;99.90
12264;DHT22;6194;49.010;8.414;2023-05-07T05:52:37;16.30;99.90
12264;DHT22;6194;49.010;8.414;2023-05-07T05:55:03;16.50;99.90
12264;DHT22;6194;49.010;8.414;2023-05-07T05:57:28;16.50;99.90
12264;DHT22;6194;49.010;8.414;2023-05-07T05:59:54;16.60;99.90
12264;DHT22;6194;49.010;8.414;2023-05-07T06:02:20;16.80;99.90
12264;DHT22;6194;49.010;8.414;2023-05-07T06:04:46;17.00;99.90
12264;DHT22;6194;49.010;8.414;2023-05-07T06:07:12;17.20;99.90
12264;DHT22;6194;49.010;8.414;2023-05-07T06:09:37;17.40;99.90
12264;DHT22;6194;49.010;8.414;2023-05-07T06:12:03;17.40;99.90
12264;DHT22;6194;49.010;8.414;2023-05-07T06:14:29;17.50;99.90
12264;DHT22;6194;49.010;8.414;2023-05-07T06:16:54;17.70;99.90
12264;DHT22;6194;49.010;8.414;2023-05-07T06:19:20;18.20;99.90
12264;DHT22;6194;49.010;8.414;2023-05-07T06:21:49;18.90;99.90
12264;DHT22;6194;49.010;8.414;2023-05-07T06:24:15;19.20;99.90
12264;DHT22;6194;49.010;8.414;2023-05-07T06:26:40;19.30;99.90
12264;DHT22;6194;49.010;8.414;2023-05-07T06:29:06;19.30;99.90
12264;DHT22;6194;49.010;8.414;2023-05-07T06:31:31;19.10;99.90
12264;DHT22;6194;49.010;8.414;2023-05-07T06:33:57;19.00;99.90
12264;DHT22;6194;49.010;8.414;2023-05-07T06:36:24;19.10;99.90
12264;DHT22;6194;49.010;8.414;2023-05-07T06:38:49;19.50;99.90
12264;DHT22;6194;49.010;8.414;2023-05-07T06:41:15;19.80;99.90
12264;DHT22;6194;49.010;8.414;2023-05-07T06:43:41;20.30;99.90
12264;DHT22;6194;49.010;8.414;2023-05-07T06:46:06;20.80;99.90
12264;DHT22;6194;49.010;8.414;2023-05-07T06:48:32;21.10;99.90
12264;DHT22;6194;49.010;8.414;2023-05-07T06:50:57;21.40;99.90
12264;DHT22;6194;49.010;8.414;2023-05-07T06:53:24;21.10;99.90
12264;DHT22;6194;49.010;8.414;2023-05-07T06:55:50;20.70;99.90
12264;DHT22;6194;49.010;8.414;2023-05-07T06:58:15;20.40;99.90
12264;DHT22;6194;49.010;8.414;2023-05-07T07:00:46;20.20;99.90
12264;DHT22;6194;49.010;8.414;2023-05-07T07:03:12;20.30;99.90
12264;DHT22;6194;49.010;8.414;2023-05-07T07:05:37;20.40;99.90
12264;DHT22;6194;49.010;8.414;2023-05-07T07:08:03;20.50;99.90
12264;DHT22;6194;49.010;8.414;2023-05-07T07:10:29;20.50;99.90
12264;DHT22;6194;49.010;8.414;2023-05-07T07:12:54;20.40;99.90
12264;DHT22;6194;49.010;8.414;2023-05-07T07:15:20;20.50;99.90
12264;DHT22;6194;49.010;8.414;2023-05-07T07:17:46;20.20;99.90
12264;DHT22;6194;49.010;8.414;2023-05-07T07:20:11;20.20;99.90
12264;DHT22;6194;49.010;8.414;2023-05-07T07:22:37;20.30;99.90
12264;DHT22;6194;49.010;8.414;2023-05-07T07:25:03;20.20;99.90
12264;DHT22;6194;49.010;8.414;2023-05-07T07:27:29;20.40;99.90
12264;DHT22;6194;49.010;8.414;2023-05-07T07:29:54;20.40;99.90
12264;DHT22;6194;49.010;8.414;2023-05-07T07:32:20;20.50;99.90
12264;DHT22;6194;49.010;8.414;2023-05-07T07:34:46;20.60;99.90
12264;DHT22;6194;49.010;8.414;2023-05-07T07:37:11;21.00;99.90
12264;DHT22;6194;49.010;8.414;2023-05-07T07:39:37;21.30;99.90
12264;DHT22;6194;49.010;8.414;2023-05-07T07:42:06;21.20;99.90
12264;DHT22;6194;49.010;8.414;2023-05-07T07:44:32;21.30;99.90
12264;DHT22;6194;49.010;8.414;2023-05-07T07:46:57;21.00;99.90
12264;DHT22;6194;49.010;8.414;2023-05-07T07:49:23;20.90;99.90
12264;DHT22;6194;49.010;8.414;2023-05-07T07:51:48;21.00;99.90
12264;DHT22;6194;49.010;8.414;2023-05-07T07:54:14;21.00;99.90
12264;DHT22;6194;49.010;8.414;2023-05-07T07:56:40;21.10;99.90
12264;DHT22;6194;49.010;8.414;2023-05-07T07:59:05;21.10;99.90
12264;DHT22;6194;49.010;8.414;2023-05-07T08:01:31;21.50;99.90
12264;DHT22;6194;49.010;8.414;2023-05-07T08:03:57;22.00;99.90
12264;DHT22;6194;49.010;8.414;2023-05-07T08:06:25;22.30;99.90
12264;DHT22;6194;49.010;8.414;2023-05-07T08:08:52;22.90;99.90
12264;DHT22;6194;49.010;8.414;2023-05-07T08:11:17;23.50;99.90
12264;DHT22;6194;49.010;8.414;2023-05-07T08:13:43;23.80;99.90
12264;DHT22;6194;49.010;8.414;2023-05-07T08:16:09;24.10;99.90
12264;DHT22;6194;49.010;8.414;2023-05-07T08:18:34;24.40;99.90
12264;DHT22;6194;49.010;8.414;2023-05-07T08:21:01;24.80;99.90
12264;DHT22;6194;49.010;8.414;2023-05-07T08:23:26;25.70;99.90
12264;DHT22;6194;49.010;8.414;2023-05-07T08:25:52;26.20;99.90
12264;DHT22;6194;49.010;8.414;2023-05-07T08:28:18;26.10;99.90
12264;DHT22;6194;49.010;8.414;2023-05-07T08:30:45;25.40;99.90
12264;DHT22;6194;49.010;8.414;2023-05-07T08:33:10;25.30;99.90
12264;DHT22;6194;49.010;8.414;2023-05-07T08:35:36;24.80;99.90
12264;DHT22;6194;49.010;8.414;2023-05-07T08:38:01;25.00;99.90
12264;DHT22;6194;49.010;8.414;2023-05-07T08:40:27;24.60;99.90
12264;DHT22;6194;49.010;8.414;2023-05-07T08:42:54;24.50;99.90
12264;DHT22;6194;49.010;8.414;2023-05-07T08:45:20;24.50;99.90
12264;DHT22;6194;49.010;8.414;2023-05-07T08:47:53;24.70;99.90
12264;DHT22;6194;49.010;8.414;2023-05-07T08:50:21;24.80;99.90
12264;DHT22;6194;49.010;8.414;2023-05-07T08:52:47;25.00;99.90
12264;DHT22;6194;49.010;8.414;2023-05-07T08:55:13;25.70;99.90
12264;DHT22;6194;49.010;8.414;2023-05-07T08:57:39;25.60;99.90
12264;DHT22;6194;49.010;8.414;2023-05-07T09:00:05;25.20;99.90
12264;DHT22;6194;49.010;8.414;2023-05-07T09:02:32;25.60;99.90
12264;DHT22;6194;49.010;8.414;2023-05-07T09:04:58;25.70;99.90
12264;DHT22;6194;49.010;8.414;2023-05-07T09:07:25;25.80;99.90
12264;DHT22;6194;49.010;8.414;2023-05-07T09:09:50;25.30;99.90
12264;DHT22;6194;49.010;8.414;2023-05-07T09:12:17;24.90;99.90
12264;DHT22;6194;49.010;8.414;2023-05-07T09:14:43;24.30;99.90
12264;DHT22;6194;49.010;8.414;2023-05-07T09:17:08;24.30;99.90
12264;DHT22;6194;49.010;8.414;2023-05-07T09:19:34;24.40;99.90
12264;DHT22;6194;49.010;8.414;2023-05-07T09:22:04;24.50;99.90
12264;DHT22;6194;49.010;8.414;2023-05-07T09:24:31;24.30;99.90
12264;DHT22;6194;49.010;8.414;2023-05-07T09:27:01;23.80;99.90
12264;DHT22;6194;49.010;8.414;2023-05-07T09:29:27;23.50;99.90
12264;DHT22;6194;49.010;8.414;2023-05-07T09:32:07;23.60;99.90
12264;DHT22;6194;49.010;8.414;2023-05-07T09:34:34;23.60;99.90
12264;DHT22;6194;49.010;8.414;2023-05-07T09:37:03;23.20;99.90
12264;DHT22;6194;49.010;8.414;2023-05-07T09:39:43;23.30;99.90
12264;DHT22;6194;49.010;8.414;2023-05-07T09:42:09;23.50;99.90
12264;DHT22;6194;49.010;8.414;2023-05-07T09:44:37;23.40;99.90
12264;DHT22;6194;49.010;8.414;2023-05-07T09:47:05;23.50;99.90
12264;DHT22;6194;49.010;8.414;2023-05-07T09:49:36;23.30;99.90
12264;DHT22;6194;49.010;8.414;2023-05-07T09:52:04;23.30;99.90
12264;DHT22;6194;49.010;8.414;2023-05-07T09:54:32;23.40;99.90
12264;DHT22;6194;49.010;8.414;2023-05-07T09:56:59;23.20;99.90
12264;DHT22;6194;49.010;8.414;2023-05-07T09:59:28;23.00;99.90
12264;DHT22;6194;49.010;8.414;2023-05-07T10:01:57;23.00;99.90
12264;DHT22;6194;49.010;8.414;2023-05-07T10:04:25;23.00;99.90
12264;DHT22;6194;49.010;8.414;2023-05-07T10:06:51;22.90;99.90
12264;DHT22;6194;49.010;8.414;2023-05-07T10:09:17;23.10;99.90
12264;DHT22;6194;49.010;8.414;2023-05-07T10:11:43;23.20;99.90
12264;DHT22;6194;49.010;8.414;2023-05-07T10:14:10;23.00;99.90
12264;DHT22;6194;49.010;8.414;2023-05-07T10:16:36;23.10;99.90
12264;DHT22;6194;49.010;8.414;2023-05-07T10:19:03;23.10;99.90
12264;DHT22;6194;49.010;8.414;2023-05-07T10:21:30;23.20;99.90
12264;DHT22;6194;49.010;8.414;2023-05-07T10:24:03;23.10;99.90
12264;DHT22;6194;49.010;8.414;2023-05-07T10:26:32;23.10;99.90
12264;DHT22;6194;49.010;8.414;2023-05-07T10:29:07;23.10;99.90
12264;DHT22;6194;49.010;8.414;2023-05-07T10:32:19;23.20;99.90
12264;DHT22;6194;49.010;8.414;2023-05-07T10:34:50;23.40;99.90
12264;DHT22;6194;49.010;8.414;2023-05-07T10:37:18;23.60;99.90
12264;DHT22;6194;49.010;8.414;2023-05-07T10:39:45;23.80;99.90
12264;DHT22;6194;49.010;8.414;2023-05-07T10:42:11;23.80;99.90
12264;DHT22;6194;49.010;8.414;2023-05-07T10:44:37;23.80;99.90
12264;DHT22;6194;49.010;8.414;2023-05-07T10:47:11;23.90;99.90
12264;DHT22;6194;49.010;8.414;2023-05-07T10:52:15;23.90;99.90
12264;DHT22;6194;49.010;8.414;2023-05-07T10:54:42;23.60;99.90
12264;DHT22;6194;49.010;8.414;2023-05-07T10:59:53;24.10;99.90
12264;DHT22;6194;49.010;8.414;2023-05-07T11:02:19;24.30;99.90
12264;DHT22;6194;49.010;8.414;2023-05-07T11:04:45;24.60;99.90
12264;DHT22;6194;49.010;8.414;2023-05-07T11:07:23;24.90;99.90
12264;DHT22;6194;49.010;8.414;2023-05-07T11:15:13;25.00;99.90
12264;DHT22;6194;49.010;8.414;2023-05-07T11:17:57;25.10;99.90
12264;DHT22;6194;49.010;8.414;2023-05-07T11:26:04;25.20;99.90
12264;DHT22;6194;49.010;8.414;2023-05-07T11:28:33;25.40;99.90
12264;DHT22;6194;49.010;8.414;2023-05-07T11:31:02;25.50;99.90
12264;DHT22;6194;49.010;8.414;2023-05-07T11:33:28;25.70;99.90
12264;DHT22;6194;49.010;8.414;2023-05-07T11:35:54;25.90;99.90
12264;DHT22;6194;49.010;8.414;2023-05-07T11:38:20;26.10;99.90
12264;DHT22;6194;49.010;8.414;2023-05-07T11:43:15;26.30;99.90
12264;DHT22;6194;49.010;8.414;2023-05-07T11:45:41;26.60;99.90
12264;DHT22;6194;49.010;8.414;2023-05-07T11:48:07;26.90;99.90
12264;DHT22;6194;49.010;8.414;2023-05-07T11:50:32;27.10;99.90
12264;DHT22;6194;49.010;8.414;2023-05-07T11:52:58;27.30;99.60
12264;DHT22;6194;49.010;8.414;2023-05-07T11:55:24;27.60;99.20
12264;DHT22;6194;49.010;8.414;2023-05-07T11:57:51;27.70;99.00
12264;DHT22;6194;49.010;8.414;2023-05-07T12:00:17;27.70;98.70
12264;DHT22;6194;49.010;8.414;2023-05-07T12:02:45;27.40;98.80
12264;DHT22;6194;49.010;8.414;2023-05-07T12:05:10;27.40;98.60
12264;DHT22;6194;49.010;8.414;2023-05-07T12:07:36;27.10;98.90
12264;DHT22;6194;49.010;8.414;2023-05-07T12:10:05;27.20;98.60
12264;DHT22;6194;49.010;8.414;2023-05-07T12:12:40;27.40;98.60
12264;DHT22;6194;49.010;8.414;2023-05-07T12:15:07;27.50;98.50
12264;DHT22;6194;49.010;8.414;2023-05-07T12:17:33;27.60;98.00
12264;DHT22;6194;49.010;8.414;2023-05-07T12:19:59;27.80;97.70
12264;DHT22;6194;49.010;8.414;2023-05-07T12:22:25;28.20;97.50
12264;DHT22;6194;49.010;8.414;2023-05-07T12:24:58;28.10;97.60
12264;DHT22;6194;49.010;8.414;2023-05-07T12:27:25;28.30;97.30
12264;DHT22;6194;49.010;8.414;2023-05-07T12:29:51;28.60;96.90
12264;DHT22;6194;49.010;8.414;2023-05-07T12:32:18;28.90;96.40
12264;DHT22;6194;49.010;8.414;2023-05-07T12:34:44;29.20;96.00
12264;DHT22;6194;49.010;8.414;2023-05-07T12:37:10;29.40;96.20
12264;DHT22;6194;49.010;8.414;2023-05-07T12:39:36;28.90;96.00
12264;DHT22;6194;49.010;8.414;2023-05-07T12:42:02;28.90;96.40
12264;DHT22;6194;49.010;8.414;2023-05-07T12:44:32;28.90;96.20
12264;DHT22;6194;49.010;8.414;2023-05-07T12:46:58;29.10;96.10
12264;DHT22;6194;49.010;8.414;2023-05-07T12:49:26;29.40;95.40
12264;DHT22;6194;49.010;8.414;2023-05-07T12:51:52;29.30;95.80
12264;DHT22;6194;49.010;8.414;2023-05-07T12:54:29;28.80;95.80
12264;DHT22;6194;49.010;8.414;2023-05-07T12:57:21;28.80;95.70
12264;DHT22;6194;49.010;8.414;2023-05-07T12:59:47;28.70;96.00
12264;DHT22;6194;49.010;8.414;2023-05-07T13:02:12;28.70;96.10
12264;DHT22;6194;49.010;8.414;2023-05-07T13:04:38;28.10;96.10
12264;DHT22;6194;49.010;8.414;2023-05-07T13:07:03;28.60;95.50
12264;DHT22;6194;49.010;8.414;2023-05-07T13:09:30;28.60;94.90
12264;DHT22;6194;49.010;8.414;2023-05-07T13:11:56;28.80;94.60
12264;DHT22;6194;49.010;8.414;2023-05-07T13:14:22;29.00;94.70
12264;DHT22;6194;49.010;8.414;2023-05-07T13:16:48;29.20;94.40
12264;DHT22;6194;49.010;8.414;2023-05-07T13:19:13;28.70;94.30
12264;DHT22;6194;49.010;8.414;2023-05-07T13:21:39;28.70;94.40
12264;DHT22;6194;49.010;8.414;2023-05-07T13:24:05;29.10;93.80
12264;DHT22;6194;49.010;8.414;2023-05-07T13:26:31;29.50;92.80
12264;DHT22;6194;49.010;8.414;2023-05-07T13:28:57;29.00;92.40
12264;DHT22;6194;49.010;8.414;2023-05-07T13:31:23;28.60;92.70
12264;DHT22;6194;49.010;8.414;2023-05-07T13:33:48;28.70;93.80
12264;DHT22;6194;49.010;8.414;2023-05-07T13:36:14;28.90;93.80
12264;DHT22;6194;49.010;8.414;2023-05-07T13:38:40;28.80;93.50
12264;DHT22;6194;49.010;8.414;2023-05-07T13:41:06;28.10;93.40
12264;DHT22;6194;49.010;8.414;2023-05-07T13:43:31;28.30;93.70
12264;DHT22;6194;49.010;8.414;2023-05-07T13:46:00;28.40;93.10
12264;DHT22;6194;49.010;8.414;2023-05-07T13:48:26;28.30;93.40
12264;DHT22;6194;49.010;8.414;2023-05-07T13:50:51;28.00;92.90
12264;DHT22;6194;49.010;8.414;2023-05-07T13:53:17;27.90;93.70
12264;DHT22;6194;49.010;8.414;2023-05-07T13:55:44;28.30;93.70
12264;DHT22;6194;49.010;8.414;2023-05-07T13:58:10;28.10;93.70
12264;DHT22;6194;49.010;8.414;2023-05-07T14:00:35;28.00;93.60
12264;DHT22;6194;49.010;8.414;2023-05-07T14:03:01;28.30;93.70
12264;DHT22;6194;49.010;8.414;2023-05-07T14:05:27;27.70;93.60
12264;DHT22;6194;49.010;8.414;2023-05-07T14:07:56;27.90;93.70
12264;DHT22;6194;49.010;8.414;2023-05-07T14:10:22;27.70;93.90
12264;DHT22;6194;49.010;8.414;2023-05-07T14:12:48;27.30;94.40
12264;DHT22;6194;49.010;8.414;2023-05-07T14:15:14;26.50;96.00
12264;DHT22;6194;49.010;8.414;2023-05-07T14:17:40;26.40;96.90
12264;DHT22;6194;49.010;8.414;2023-05-07T14:20:06;26.30;97.50
12264;DHT22;6194;49.010;8.414;2023-05-07T14:22:32;26.30;97.20
12264;DHT22;6194;49.010;8.414;2023-05-07T14:24:57;26.60;96.90
12264;DHT22;6194;49.010;8.414;2023-05-07T14:27:23;26.30;97.00
12264;DHT22;6194;49.010;8.414;2023-05-07T14:29:49;26.50;96.70
12264;DHT22;6194;49.010;8.414;2023-05-07T14:32:17;26.70;94.60
12264;DHT22;6194;49.010;8.414;2023-05-07T14:34:43;26.30;93.40
12264;DHT22;6194;49.010;8.414;2023-05-07T14:37:09;26.20;93.00
12264;DHT22;6194;49.010;8.414;2023-05-07T14:39:34;25.90;92.40
12264;DHT22;6194;49.010;8.414;2023-05-07T14:42:00;26.20;91.80
12264;DHT22;6194;49.010;8.414;2023-05-07T14:44:26;26.00;91.90
12264;DHT22;6194;49.010;8.414;2023-05-07T14:46:51;26.10;92.00
12264;DHT22;6194;49.010;8.414;2023-05-07T14:49:17;26.20;91.50
12264;DHT22;6194;49.010;8.414;2023-05-07T14:51:46;26.30;91.40
12264;DHT22;6194;49.010;8.414;2023-05-07T14:54:13;26.60;91.50
12264;DHT22;6194;49.010;8.414;2023-05-07T14:56:39;26.50;91.40
12264;DHT22;6194;49.010;8.414;2023-05-07T14:59:05;26.40;91.20
12264;DHT22;6194;49.010;8.414;2023-05-07T15:01:31;26.40;91.50
12264;DHT22;6194;49.010;8.414;2023-05-07T15:03:57;26.50;91.30
12264;DHT22;6194;49.010;8.414;2023-05-07T15:06:23;26.70;92.00
12264;DHT22;6194;49.010;8.414;2023-05-07T15:08:49;26.80;92.20
12264;DHT22;6194;49.010;8.414;2023-05-07T15:11:14;26.80;92.50
12264;DHT22;6194;49.010;8.414;2023-05-07T15:13:42;26.90;92.40
12264;DHT22;6194;49.010;8.414;2023-05-07T15:16:07;27.00;92.20
12264;DHT22;6194;49.010;8.414;2023-05-07T15:18:33;26.70;92.60
12264;DHT22;6194;49.010;8.414;2023-05-07T15:20:59;26.60;93.10
12264;DHT22;6194;49.010;8.414;2023-05-07T15:23:24;26.80;93.10
12264;DHT22;6194;49.010;8.414;2023-05-07T15:25:51;26.10;93.60
12264;DHT22;6194;49.010;8.414;2023-05-07T15:28:17;26.10;94.10
12264;DHT22;6194;49.010;8.414;2023-05-07T15:30:43;26.20;93.90
12264;DHT22;6194;49.010;8.414;2023-05-07T15:33:08;26.50;93.40
12264;DHT22;6194;49.010;8.414;2023-05-07T15:35:34;26.50;93.50
12264;DHT22;6194;49.010;8.414;2023-05-07T15:38:00;26.80;93.40
12264;DHT22;6194;49.010;8.414;2023-05-07T15:40:29;26.60;93.60
12264;DHT22;6194;49.010;8.414;2023-05-07T15:42:55;26.40;93.80
12264;DHT22;6194;49.010;8.414;2023-05-07T15:45:22;26.00;93.90
12264;DHT22;6194;49.010;8.414;2023-05-07T15:47:48;25.50;94.40
12264;DHT22;6194;49.010;8.414;2023-05-07T15:50:13;25.40;94.90
12264;DHT22;6194;49.010;8.414;2023-05-07T15:52:39;25.30;95.10
12264;DHT22;6194;49.010;8.414;2023-05-07T15:55:06;25.10;95.40
12264;DHT22;6194;49.010;8.414;2023-05-07T15:57:33;24.70;96.00
12264;DHT22;6194;49.010;8.414;2023-05-07T15:59:59;24.50;97.50